Carver, MN

5:52 AM CDT on June 26, 2017 (GMT -0500)
Carver Bluffs, Carver Minnesota | | Change Station

Elev 837 ft 44.75 °N, 93.65 °W | Updated 22 seconds ago

Clear
Clear
43.9 °F
Feels Like 44 °F
N
0.0
Wind Variable Wind from South

Today
High -- | Low -- °F
--% Chance of Precip.
Yesterday
High -- | Low -- °F
Precip. -- in
Pressure 30.15 in
Visibility 10.0 miles
Clouds Clear
Windchill 44 °F
Dew Point 42 °F
Humidity 95%
Rainfall 0.00 in
Snow Depth Not available.
5:30 AM 9:04 PM
Waxing Crescent, 8% visible
METAR KFCM 260953Z AUTO 33006KT 10SM CLR 12/07 A3015 RMK AO2 SLP210 T01170067
Pressure 30.15 in
Visibility 10.0 miles
Clouds Clear
Windchill 44 °F
Dew Point 42 °F
Humidity 95%
Rainfall 0.00 in
Snow Depth Not available.
5:30 AM 9:04 PM
Waxing Crescent, 8% visible
METAR KFCM 260953Z AUTO 33006KT 10SM CLR 12/07 A3015 RMK AO2 SLP210 T01170067

Get Severe Weather Alerts

Thanks for signing up!

Be on the lookout for a verification email in your inbox.

You'll start receiving the daily forecast at 6 AM.

×

10-Day Weather Forecast

Almanac

Astronomy

Jun. 26, 2017 Rise Set
Actual Time
Civil Twilight
Nautical Twilight
Astronomical Twilight
Moon
Length of Visible Light
Length of Day
Tomorrow will be .
, % of the Moon is Illuminated

Today's Extremes

State Highs State Lows

Community

WunderPhotos

Category 6

Welcome to Category 6. This is the collective home for Weather Underground's featured writeups by Dr. Jeff Masters (right), Bob Henson (left), Chris Burt, and other regular contributors.

Nearby

Air Quality

  Air Quality AQ Index Pollutant
Not available.

Snow Depth

Station Depth Elevation

Earthquake Activity

City Distance Mag. Time & Date
Minimum magnitude displayed is 2.5.

Coastal Water Temperatures

Place Temperature

Stations

Nearby Weather Stations

Station Location Temp. Windchill Dew Point Humidity Wind Precip. Elev Updated Type
                   

Watches & Warnings

There are currently no watches in effect.